Time;durP1;ratioP1;P1;durP2;ratioP2;P2;SDS_P1;SDS_P2;PMS_P1;PMS_P2;Temp;Humidity;BMP_temperature;BMP_pressure;BME280_temperature;BME280_humidity;BME280_pressure;Samples;Min_cycle;Max_cycle;Signal;HPM_P1;HPM_P2
2021/03/25 00:01:53;;;;;;;14.32;9.52;;;6.00;99.90;;;;;;5098747;28;20212;-50
2021/03/25 00:04:19;;;;;;;11.63;8.77;;;6.20;99.90;;;;;;5099633;27;20184;-50
2021/03/25 00:06:51;;;;;;;12.85;9.65;;;6.00;99.90;;;;;;5106444;27;20182;-50
2021/03/25 00:09:26;;;;;;;12.73;8.60;;;6.20;99.90;;;;;;5108044;28;20568;-50
2021/03/25 00:11:53;;;;;;;13.50;10.07;;;6.20;99.90;;;;;;5107876;27;20687;-50
2021/03/25 00:14:18;;;;;;;10.25;8.30;;;6.10;99.90;;;;;;5108488;28;20197;-49
2021/03/25 00:16:44;;;;;;;12.33;9.80;;;5.90;99.90;;;;;;5107400;27;20193;-50
2021/03/25 00:19:10;;;;;;;12.00;9.20;;;5.90;99.90;;;;;;5098845;27;20207;-50
2021/03/25 00:21:37;;;;;;;15.88;9.60;;;6.00;99.90;;;;;;5100792;28;20468;-50
2021/03/25 00:24:04;;;;;;;12.95;8.68;;;5.70;99.90;;;;;;5102078;28;20180;-50
2021/03/25 00:26:30;;;;;;;11.43;9.30;;;5.80;99.90;;;;;;5101129;28;20252;-50
2021/03/25 00:28:55;;;;;;;12.23;9.67;;;6.00;99.90;;;;;;5101794;28;20205;-51
2021/03/25 00:31:21;;;;;;;10.67;9.23;;;5.70;99.90;;;;;;5094647;27;20177;-50
2021/03/25 00:33:47;;;;;;;14.03;9.67;;;5.60;99.90;;;;;;5106309;28;20647;-50
2021/03/25 00:36:13;;;;;;;10.80;8.63;;;5.70;99.90;;;;;;5109669;27;20187;-50
2021/03/25 00:38:38;;;;;;;14.40;9.77;;;5.60;99.90;;;;;;5111836;27;20208;-50
2021/03/25 00:41:05;;;;;;;15.33;9.17;;;5.90;99.90;;;;;;5124957;27;20424;-50
2021/03/25 00:43:30;;;;;;;12.77;9.07;;;5.60;99.90;;;;;;5108602;27;20478;-50
2021/03/25 00:45:56;;;;;;;17.13;10.70;;;5.60;99.90;;;;;;5100555;28;20210;-50
2021/03/25 00:48:23;;;;;;;16.20;9.60;;;5.60;99.90;;;;;;5092701;28;20452;-50
2021/03/25 00:50:52;;;;;;;14.43;10.40;;;5.50;99.90;;;;;;5093823;27;20209;-50
2021/03/25 00:53:21;;;;;;;12.82;9.35;;;5.60;99.90;;;;;;5110798;27;20520;-50
2021/03/25 00:55:47;;;;;;;13.75;9.15;;;5.70;99.90;;;;;;5100457;27;20178;-50
2021/03/25 00:58:13;;;;;;;13.40;9.27;;;5.70;99.90;;;;;;5104580;27;20704;-50
2021/03/25 01:00:40;;;;;;;12.27;10.10;;;5.40;99.90;;;;;;5102398;27;20176;-50
2021/03/25 01:03:07;;;;;;;13.93;10.10;;;5.20;99.90;;;;;;5109682;27;20206;-50
2021/03/25 01:05:33;;;;;;;14.10;9.90;;;5.30;99.90;;;;;;5097810;28;20181;-50
2021/03/25 01:07:59;;;;;;;13.50;10.13;;;5.50;99.90;;;;;;5099656;28;20195;-51
2021/03/25 01:10:51;;;;;;;13.00;9.37;;;5.50;99.90;;;;;;5099528;28;20569;-50
2021/03/25 01:13:25;;;;;;;12.93;8.95;;;5.50;99.90;;;;;;5110577;27;20189;-50
2021/03/25 01:15:51;;;;;;;11.95;9.02;;;5.30;99.90;;;;;;5104624;27;20228;-50
2021/03/25 01:18:18;;;;;;;11.70;9.38;;;5.20;99.90;;;;;;5102170;27;20204;-50
2021/03/25 01:20:44;;;;;;;14.35;9.55;;;5.20;99.90;;;;;;5107276;27;20250;-50
2021/03/25 01:23:11;;;;;;;15.68;9.10;;;5.10;99.90;;;;;;5111706;27;20638;-51
2021/03/25 01:25:37;;;;;;;14.82;10.30;;;5.10;99.90;;;;;;5103509;27;20175;-51
2021/03/25 01:28:06;;;;;;;12.38;8.68;;;5.40;99.90;;;;;;5094892;27;20200;-50
2021/03/25 01:30:33;;;;;;;10.63;8.60;;;5.30;99.90;;;;;;5103112;27;20213;-50
2021/03/25 01:33:02;;;;;;;10.65;8.48;;;5.20;99.90;;;;;;5129212;27;20590;-50
2021/03/25 01:35:28;;;;;;;13.23;9.75;;;5.40;99.90;;;;;;5093345;28;20189;-50
2021/03/25 01:37:54;;;;;;;11.18;8.68;;;5.10;99.90;;;;;;5094694;27;20681;-50
2021/03/25 01:40:31;;;;;;;14.73;10.27;;;5.10;99.90;;;;;;5097132;27;20306;-50
2021/03/25 01:43:15;;;;;;;11.13;8.85;;;5.00;99.90;;;;;;5094402;27;20214;-49
2021/03/25 01:45:47;;;;;;;13.60;9.82;;;5.10;99.90;;;;;;5103816;27;20670;-50
2021/03/25 01:48:14;;;;;;;12.40;9.27;;;5.00;99.90;;;;;;5101637;28;20256;-49
2021/03/25 01:50:41;;;;;;;11.80;8.90;;;5.00;99.90;;;;;;5103120;27;20181;-49
2021/03/25 01:53:31;;;;;;;12.50;8.55;;;5.00;99.90;;;;;;5110781;27;20184;-49
2021/03/25 01:56:20;;;;;;;11.63;9.52;;;5.10;99.90;;;;;;5105409;27;20262;-50
2021/03/25 01:59:07;;;;;;;13.73;8.85;;;5.10;99.90;;;;;;5103915;27;20206;-49
2021/03/25 02:01:58;;;;;;;13.43;9.02;;;5.00;99.90;;;;;;5097972;27;20197;-49
2021/03/25 02:04:33;;;;;;;14.18;9.90;;;4.80;99.90;;;;;;5117656;27;20587;-50
2021/03/25 02:07:07;;;;;;;10.88;9.77;;;4.70;99.90;;;;;;5098687;28;20204;-50
2021/03/25 02:09:42;;;;;;;13.60;10.82;;;4.70;99.90;;;;;;5098298;28;20195;-49
2021/03/25 02:12:29;;;;;;;15.68;10.38;;;4.90;99.90;;;;;;5108625;27;20186;-49
2021/03/25 02:15:29;;;;;;;11.73;9.57;;;4.90;99.90;;;;;;5111608;28;20303;-50
2021/03/25 02:18:04;;;;;;;12.95;8.80;;;4.60;99.90;;;;;;5091155;28;20212;-49
2021/03/25 02:20:51;;;;;;;11.68;7.95;;;4.70;99.90;;;;;;5100858;28;20188;-50
2021/03/25 02:23:26;;;;;;;17.08;10.38;;;4.60;99.90;;;;;;5104048;28;20192;-50
2021/03/25 02:26:02;;;;;;;13.05;9.65;;;4.70;99.90;;;;;;5091880;28;20271;-50
2021/03/25 02:28:49;;;;;;;14.63;9.93;;;4.50;99.90;;;;;;5102859;28;20589;-49
2021/03/25 02:31:19;;;;;;;16.77;10.70;;;4.60;99.90;;;;;;5096014;28;20173;-50
2021/03/25 02:33:49;;;;;;;13.38;10.13;;;4.70;99.90;;;;;;5108390;28;20188;-49
2021/03/25 02:36:19;;;;;;;15.05;9.70;;;5.00;99.90;;;;;;5100008;28;20689;-50
2021/03/25 02:38:51;;;;;;;15.63;10.00;;;4.60;99.90;;;;;;5099000;28;20554;-50
2021/03/25 02:41:29;;;;;;;12.95;9.70;;;5.00;99.90;;;;;;5105501;28;20299;-49
2021/03/25 02:44:02;;;;;;;11.68;8.80;;;5.10;99.90;;;;;;5098313;27;20167;-50
2021/03/25 02:46:32;;;;;;;12.30;9.05;;;5.00;99.90;;;;;;5110381;27;20182;-50
2021/03/25 02:49:03;;;;;;;12.45;9.40;;;5.00;99.90;;;;;;5108621;28;20204;-50
2021/03/25 02:51:32;;;;;;;11.60;9.70;;;5.20;99.90;;;;;;5112872;27;20589;-49
2021/03/25 02:53:57;;;;;;;9.80;8.25;;;5.20;99.90;;;;;;5102476;27;20267;-49
2021/03/25 02:56:33;;;;;;;12.90;9.83;;;5.40;99.90;;;;;;5098958;27;20273;-50
2021/03/25 02:59:22;;;;;;;13.07;9.10;;;5.50;99.90;;;;;;5105071;27;20460;-49
2021/03/25 03:01:52;;;;;;;11.70;9.20;;;5.10;99.90;;;;;;5101566;27;20209;-49
2021/03/25 03:04:26;;;;;;;11.70;8.68;;;5.40;99.90;;;;;;5099382;27;20177;-49
2021/03/25 03:07:00;;;;;;;11.73;9.60;;;5.20;99.90;;;;;;5106275;28;20210;-50
2021/03/25 03:09:32;;;;;;;11.82;8.57;;;5.40;99.90;;;;;;5098787;27;20204;-50
2021/03/25 03:12:01;;;;;;;11.18;8.30;;;5.30;99.90;;;;;;5098265;27;20246;-50
2021/03/25 03:14:36;;;;;;;12.05;9.73;;;5.20;99.90;;;;;;5098474;28;20173;-50
2021/03/25 03:17:19;;;;;;;10.88;8.15;;;5.30;99.90;;;;;;5111408;27;20227;-49
2021/03/25 03:19:53;;;;;;;11.07;8.32;;;5.30;99.90;;;;;;5119731;27;20201;-50
2021/03/25 03:22:19;;;;;;;11.35;9.52;;;5.10;99.90;;;;;;5107630;27;20220;-51
2021/03/25 03:24:48;;;;;;;11.67;9.17;;;5.10;99.90;;;;;;5111606;27;20242;-50
2021/03/25 03:27:20;;;;;;;12.80;9.35;;;5.30;99.90;;;;;;5102805;27;20179;-49
2021/03/25 03:29:48;;;;;;;9.52;8.05;;;5.40;99.90;;;;;;5114220;27;20307;-50
2021/03/25 03:32:38;;;;;;;11.05;9.00;;;5.40;99.90;;;;;;5101281;27;20212;-49
2021/03/25 03:35:11;;;;;;;12.05;9.88;;;5.30;99.90;;;;;;5114536;27;20180;-50
2021/03/25 03:37:42;;;;;;;11.73;8.75;;;5.10;99.90;;;;;;5108474;27;20171;-50
2021/03/25 03:40:19;;;;;;;9.95;7.88;;;5.30;99.90;;;;;;5099248;28;20185;-50
2021/03/25 03:42:46;;;;;;;10.48;8.50;;;5.10;99.90;;;;;;5108767;27;20218;-49
2021/03/25 03:45:17;;;;;;;12.45;8.18;;;5.20;99.90;;;;;;5110270;27;20188;-50
2021/03/25 03:47:44;;;;;;;9.20;6.95;;;5.50;99.90;;;;;;5102018;28;20646;-50
2021/03/25 03:50:25;;;;;;;10.30;8.75;;;5.30;99.90;;;;;;5098011;27;20214;-49
2021/03/25 03:52:54;;;;;;;9.98;8.07;;;5.20;99.90;;;;;;5100349;27;20200;-50
2021/03/25 03:55:20;;;;;;;10.23;7.88;;;5.70;99.90;;;;;;5106959;28;20188;-50
2021/03/25 03:58:21;;;;;;;9.70;7.90;;;5.30;99.90;;;;;;5095033;28;20201;-49
2021/03/25 04:01:11;;;;;;;10.95;7.82;;;5.40;99.90;;;;;;5099443;27;20200;-49
2021/03/25 04:03:46;;;;;;;8.63;7.65;;;5.50;99.90;;;;;;5106778;27;20313;-49
2021/03/25 04:06:23;;;;;;;9.05;7.82;;;5.30;99.90;;;;;;5101775;27;20818;-50
2021/03/25 04:09:09;;;;;;;11.98;7.55;;;5.40;99.90;;;;;;5104209;27;20215;-49
2021/03/25 04:11:45;;;;;;;11.23;8.00;;;5.30;99.90;;;;;;5114673;27;20188;-49
2021/03/25 04:14:24;;;;;;;10.85;8.10;;;5.10;99.90;;;;;;5100699;27;20183;-50
2021/03/25 04:16:52;;;;;;;12.45;9.10;;;5.30;99.90;;;;;;5096751;28;20607;-50
2021/03/25 04:19:23;;;;;;;9.57;7.47;;;5.10;99.90;;;;;;5126046;27;20619;-50
2021/03/25 04:22:11;;;;;;;10.05;7.30;;;5.30;99.90;;;;;;5113303;27;20200;-49
2021/03/25 04:24:51;;;;;;;12.30;8.60;;;5.10;99.90;;;;;;5108298;27;20242;-49
2021/03/25 04:27:33;;;;;;;9.27;7.72;;;5.00;99.90;;;;;;5105615;27;20231;-50
2021/03/25 04:30:05;;;;;;;7.95;7.00;;;5.00;99.90;;;;;;5105115;27;20268;-50
2021/03/25 04:32:30;;;;;;;9.98;7.65;;;5.00;99.90;;;;;;5097963;27;20188;-49
2021/03/25 04:34:59;;;;;;;12.43;7.23;;;4.90;99.90;;;;;;5106296;27;20190;-49
2021/03/25 04:37:27;;;;;;;10.38;7.22;;;5.40;99.90;;;;;;5112460;27;20188;-49
2021/03/25 04:39:52;;;;;;;13.60;7.93;;;5.10;99.90;;;;;;5106932;28;20651;-50
2021/03/25 04:42:18;;;;;;;9.00;7.80;;;5.00;99.90;;;;;;5109102;27;20203;-50
2021/03/25 04:44:48;;;;;;;14.67;7.93;;;5.30;99.90;;;;;;5104787;27;20176;-50
2021/03/25 04:47:20;;;;;;;9.27;6.97;;;5.30;99.90;;;;;;5096097;27;20928;-50
2021/03/25 04:49:57;;;;;;;13.98;7.97;;;5.40;99.90;;;;;;5093995;27;20238;-49
2021/03/25 04:52:32;;;;;;;10.65;7.43;;;4.80;99.90;;;;;;5110398;27;20180;-50
2021/03/25 04:55:21;;;;;;;8.15;7.35;;;5.20;99.90;;;;;;5096110;27;20276;-50
2021/03/25 04:58:00;;;;;;;9.50;8.02;;;5.30;99.90;;;;;;5120931;27;20243;-50
2021/03/25 05:00:34;;;;;;;10.05;7.50;;;5.20;99.90;;;;;;5095656;27;20260;-49
2021/03/25 05:03:01;;;;;;;8.02;7.13;;;5.50;99.90;;;;;;5106828;27;20218;-49
2021/03/25 05:05:29;;;;;;;8.82;7.43;;;5.20;99.90;;;;;;5110977;27;20204;-50
2021/03/25 05:08:02;;;;;;;10.70;7.40;;;5.40;99.90;;;;;;5099930;28;20198;-49
2021/03/25 05:10:41;;;;;;;8.15;6.90;;;5.30;99.90;;;;;;5100724;27;20672;-50
2021/03/25 05:13:25;;;;;;;9.35;7.13;;;5.50;99.90;;;;;;5098277;28;20188;-50
2021/03/25 05:16:17;;;;;;;9.38;7.68;;;5.40;99.90;;;;;;5099719;27;20252;-50
2021/03/25 05:19:08;;;;;;;8.55;7.00;;;5.30;99.90;;;;;;5103138;27;20751;-49
2021/03/25 05:21:49;;;;;;;7.75;6.93;;;5.50;99.90;;;;;;5082138;28;20306;-48
2021/03/25 05:24:28;;;;;;;7.85;7.05;;;5.50;99.90;;;;;;5096985;28;20181;-49
2021/03/25 05:27:02;;;;;;;10.77;7.57;;;5.40;99.90;;;;;;5099744;28;20192;-49
2021/03/25 05:29:29;;;;;;;9.77;7.00;;;5.40;99.90;;;;;;5125785;27;20242;-49
2021/03/25 05:31:56;;;;;;;11.05;8.15;;;5.30;99.90;;;;;;5111948;27;20175;-49
2021/03/25 05:34:23;;;;;;;9.63;7.93;;;5.60;99.90;;;;;;5111351;27;20184;-50
2021/03/25 05:36:53;;;;;;;9.02;7.53;;;5.30;99.90;;;;;;5106842;28;20188;-50
2021/03/25 05:39:18;;;;;;;9.90;7.53;;;5.40;99.90;;;;;;5098673;28;20205;-49
2021/03/25 05:42:06;;;;;;;8.73;7.10;;;5.40;99.90;;;;;;5109028;27;20224;-49
2021/03/25 05:45:06;;;;;;;8.40;7.55;;;5.40;99.90;;;;;;5104118;27;20190;-49
2021/03/25 05:47:34;;;;;;;8.00;7.20;;;5.60;99.90;;;;;;5099996;27;20212;-49
2021/03/25 05:50:33;;;;;;;10.82;7.47;;;5.50;99.90;;;;;;5100845;27;20238;-50
2021/03/25 05:53:21;;;;;;;8.30;6.80;;;5.70;99.90;;;;;;5104633;27;20183;-50
2021/03/25 05:56:28;;;;;;;8.20;6.90;;;5.50;99.90;;;;;;5103322;27;20196;-49
2021/03/25 05:58:57;;;;;;;8.20;7.25;;;5.40;99.90;;;;;;5106175;27;20228;-50
2021/03/25 06:01:38;;;;;;;10.88;8.32;;;5.90;99.90;;;;;;5099716;27;20196;-50
2021/03/25 06:04:04;;;;;;;7.78;6.53;;;5.60;99.90;;;;;;5103495;28;20177;-49
2021/03/25 06:06:38;;;;;;;9.10;6.80;;;5.90;99.90;;;;;;5107336;27;20288;-51
2021/03/25 06:09:13;;;;;;;7.40;6.68;;;5.60;99.90;;;;;;5104208;28;20201;-50
2021/03/25 06:11:59;;;;;;;8.95;6.93;;;6.00;99.90;;;;;;5099860;27;20221;-51
2021/03/25 06:14:49;;;;;;;9.25;6.78;;;6.10;99.90;;;;;;5114259;27;20188;-51
2021/03/25 06:17:27;;;;;;;9.25;6.90;;;6.00;99.90;;;;;;5095013;28;20292;-51
2021/03/25 06:19:58;;;;;;;10.52;7.03;;;6.30;99.90;;;;;;5102225;27;20206;-51
2021/03/25 06:22:48;;;;;;;7.60;6.80;;;6.40;99.90;;;;;;5102878;28;20204;-51
2021/03/25 06:25:39;;;;;;;8.60;5.97;;;6.70;99.90;;;;;;5100758;28;20186;-51
2021/03/25 06:28:37;;;;;;;11.75;7.25;;;6.80;99.90;;;;;;5104266;28;20236;-51
2021/03/25 06:31:12;;;;;;;8.50;7.05;;;6.80;99.90;;;;;;5096196;28;20184;-51
2021/03/25 06:33:49;;;;;;;9.15;6.15;;;7.20;99.90;;;;;;5109169;28;20178;-51
2021/03/25 06:36:18;;;;;;;10.15;8.35;;;7.10;99.90;;;;;;5096971;28;20516;-51
2021/03/25 06:38:48;;;;;;;11.35;7.85;;;7.20;99.90;;;;;;5104737;28;20252;-51
2021/03/25 06:41:45;;;;;;;8.63;7.07;;;7.30;99.90;;;;;;5107027;28;20562;-51
2021/03/25 06:44:19;;;;;;;8.02;6.80;;;6.70;99.90;;;;;;5093648;28;20556;-51
2021/03/25 06:47:05;;;;;;;9.50;6.93;;;7.50;99.90;;;;;;5091277;28;20245;-51
2021/03/25 06:50:04;;;;;;;9.75;7.80;;;7.80;99.90;;;;;;5090659;28;20680;-51
2021/03/25 06:52:33;;;;;;;8.57;7.00;;;8.20;99.90;;;;;;5044222;28;20236;-51
2021/03/25 06:55:18;;;;;;;10.85;7.30;;;8.40;99.90;;;;;;5102428;28;20187;-51
2021/03/25 06:57:55;;;;;;;11.77;7.28;;;8.60;99.90;;;;;;5104494;28;20179;-51
2021/03/25 07:00:24;;;;;;;11.13;6.80;;;8.60;99.90;;;;;;5097617;28;20190;-51
2021/03/25 07:02:51;;;;;;;10.70;7.50;;;9.00;99.70;;;;;;5104903;28;20210;-52
2021/03/25 07:05:28;;;;;;;10.20;7.00;;;9.90;98.80;;;;;;5095357;28;20176;-52
2021/03/25 07:08:03;;;;;;;19.85;11.02;;;10.60;96.90;;;;;;5102334;28;20215;-54
2021/03/25 07:10:29;;;;;;;15.85;9.25;;;11.30;94.00;;;;;;5096869;28;20336;-55
2021/03/25 07:13:03;;;;;;;12.27;7.33;;;12.20;92.10;;;;;;5099702;27;20285;-56
2021/03/25 07:15:30;;;;;;;11.85;9.98;;;13.00;89.80;;;;;;5097920;28;20251;-58
2021/03/25 07:17:56;;;;;;;12.95;11.25;;;13.50;86.90;;;;;;5097221;28;20207;-55
2021/03/25 07:20:27;;;;;;;16.77;12.20;;;13.80;85.40;;;;;;5092038;28;20313;-56
2021/03/25 07:23:02;;;;;;;10.40;9.25;;;14.00;82.70;;;;;;5099422;28;20672;-57
2021/03/25 07:25:29;;;;;;;11.02;7.90;;;15.00;80.00;;;;;;5100625;28;20186;-57
2021/03/25 07:27:56;;;;;;;10.65;7.70;;;15.60;77.40;;;;;;5097853;28;20207;-57
2021/03/25 07:30:24;;;;;;;9.80;7.90;;;16.60;73.90;;;;;;5101807;27;20175;-56
2021/03/25 07:32:49;;;;;;;13.48;7.82;;;17.10;71.10;;;;;;5094303;28;20193;-56
2021/03/25 07:35:25;;;;;;;13.45;7.97;;;16.20;70.40;;;;;;5105140;27;20922;-60
2021/03/25 07:37:51;;;;;;;14.43;9.48;;;17.30;70.00;;;;;;5117347;27;20971;-61
2021/03/25 07:40:23;;;;;;;10.68;8.07;;;17.20;66.20;;;;;;5094951;28;20256;-59
2021/03/25 07:42:48;;;;;;;10.55;9.55;;;16.80;69.20;;;;;;5103082;27;20214;-52
2021/03/25 07:45:22;;;;;;;10.25;9.13;;;17.40;66.20;;;;;;5112430;27;20445;-53
2021/03/25 07:47:49;;;;;;;11.32;9.25;;;17.60;64.80;;;;;;5102852;28;20203;-55
2021/03/25 07:50:33;;;;;;;10.73;9.63;;;18.20;62.90;;;;;;5102655;27;20207;-55
2021/03/25 07:53:20;;;;;;;12.90;9.98;;;19.30;61.00;;;;;;5097630;28;20187;-55
2021/03/25 07:55:46;;;;;;;12.13;10.73;;;20.00;59.20;;;;;;5106883;27;20647;-55
2021/03/25 07:58:35;;;;;;;11.68;9.45;;;20.80;56.40;;;;;;5094308;28;20700;-53
2021/03/25 08:01:15;;;;;;;11.48;9.95;;;20.60;56.50;;;;;;5096174;28;20280;-55
2021/03/25 08:03:49;;;;;;;13.00;9.70;;;21.10;54.90;;;;;;5126817;27;20341;-56
2021/03/25 08:06:20;;;;;;;10.90;9.70;;;20.90;54.10;;;;;;5106712;27;20446;-51
2021/03/25 08:09:07;;;;;;;13.52;9.85;;;20.10;55.60;;;;;;5110640;27;20557;-52
2021/03/25 08:11:48;;;;;;;12.43;10.20;;;20.00;55.30;;;;;;5099331;27;20209;-51
2021/03/25 08:14:19;;;;;;;11.32;10.20;;;19.70;55.40;;;;;;5104403;27;20590;-53
2021/03/25 08:16:51;;;;;;;11.88;9.95;;;19.20;55.80;;;;;;5099590;28;20213;-56
2021/03/25 08:19:29;;;;;;;21.50;10.50;;;18.70;57.40;;;;;;5100554;27;20599;-53
2021/03/25 08:22:35;;;;;;;11.98;10.75;;;18.20;57.70;;;;;;5102777;28;20234;-52
2021/03/25 08:25:26;;;;;;;11.45;9.75;;;18.10;58.20;;;;;;5107891;27;20183;-52
2021/03/25 08:28:02;;;;;;;15.77;10.85;;;18.10;58.80;;;;;;5106217;27;20218;-54
2021/03/25 08:30:31;;;;;;;14.43;9.27;;;17.40;58.80;;;;;;5109725;27;20618;-53
2021/03/25 08:33:13;;;;;;;9.60;8.68;;;16.80;60.10;;;;;;5100563;27;20175;-53
2021/03/25 08:35:54;;;;;;;14.32;9.90;;;16.40;61.50;;;;;;5105249;27;20651;-52
2021/03/25 08:38:47;;;;;;;14.98;10.18;;;16.80;62.00;;;;;;5110062;27;20234;-52
2021/03/25 08:41:47;;;;;;;14.45;11.10;;;16.60;61.50;;;;;;5100879;27;20260;-51
2021/03/25 08:44:28;;;;;;;13.10;10.05;;;15.90;62.10;;;;;;5118335;27;20542;-50
2021/03/25 08:47:13;;;;;;;11.95;9.25;;;16.00;63.40;;;;;;5096783;27;20260;-51
2021/03/25 08:49:54;;;;;;;14.27;9.55;;;16.50;62.80;;;;;;5110800;27;20764;-50
2021/03/25 08:52:23;;;;;;;14.40;10.35;;;17.10;61.50;;;;;;5111178;27;20247;-54
2021/03/25 08:54:57;;;;;;;12.27;9.68;;;17.40;60.60;;;;;;5106487;27;20184;-55
2021/03/25 08:57:28;;;;;;;11.25;10.02;;;17.30;60.70;;;;;;5111668;27;20186;-52
2021/03/25 09:00:14;;;;;;;11.43;10.02;;;17.10;60.70;;;;;;5099744;27;20206;-53
2021/03/25 09:03:11;;;;;;;13.02;10.40;;;16.70;62.00;;;;;;5101150;27;20744;-52
2021/03/25 09:05:41;;;;;;;15.88;10.93;;;16.40;62.60;;;;;;5127133;27;20179;-55
2021/03/25 09:08:17;;;;;;;10.82;9.57;;;16.10;63.70;;;;;;5094970;27;20413;-51
2021/03/25 09:10:47;;;;;;;15.95;10.65;;;16.10;64.30;;;;;;5094484;28;20194;-50
2021/03/25 09:13:29;;;;;;;14.63;11.00;;;16.20;63.90;;;;;;5102833;27;20187;-50
2021/03/25 09:15:57;;;;;;;14.45;10.05;;;16.50;63.90;;;;;;5101930;28;20555;-50
2021/03/25 09:18:29;;;;;;;17.05;11.48;;;16.70;63.60;;;;;;5101171;27;20235;-50
2021/03/25 09:21:08;;;;;;;13.38;10.75;;;16.70;63.10;;;;;;5104594;27;20580;-51
2021/03/25 09:23:37;;;;;;;12.38;10.00;;;16.80;63.60;;;;;;5101288;27;20181;-55
2021/03/25 09:26:09;;;;;;;12.23;9.65;;;16.60;63.40;;;;;;5100690;27;20183;-53
2021/03/25 09:28:53;;;;;;;11.40;9.23;;;16.60;63.30;;;;;;5107355;27;20195;-54
2021/03/25 09:31:20;;;;;;;13.27;9.20;;;16.70;64.10;;;;;;5092562;28;20633;-50
2021/03/25 09:33:57;;;;;;;11.15;9.90;;;16.30;64.20;;;;;;5123840;27;20195;-51
2021/03/25 09:36:23;;;;;;;13.00;9.57;;;16.60;64.40;;;;;;5108087;27;20202;-53
2021/03/25 09:38:58;;;;;;;16.40;9.70;;;17.20;64.60;;;;;;5117688;27;20214;-52
2021/03/25 09:41:29;;;;;;;13.38;10.40;;;17.40;63.10;;;;;;5096723;28;20431;-51
2021/03/25 09:44:10;;;;;;;12.63;9.52;;;18.00;62.00;;;;;;5104252;28;20537;-51
2021/03/25 09:46:43;;;;;;;11.43;8.98;;;18.20;60.30;;;;;;5092907;28;20514;-52
2021/03/25 09:49:31;;;;;;;17.25;12.50;;;18.60;59.90;;;;;;5119349;27;20203;-51
2021/03/25 09:52:16;;;;;;;10.93;9.45;;;19.00;59.30;;;;;;5099240;27;20180;-53
2021/03/25 09:54:57;;;;;;;11.25;9.00;;;19.50;58.30;;;;;;5104614;27;20175;-51
2021/03/25 09:57:32;;;;;;;12.05;8.93;;;20.30;56.50;;;;;;5096597;28;20184;-53
2021/03/25 10:00:21;;;;;;;11.77;9.30;;;21.00;55.30;;;;;;5093744;28;20232;-54
2021/03/25 10:02:53;;;;;;;9.60;8.33;;;21.60;54.80;;;;;;5102339;27;20468;-52
2021/03/25 10:08:14;;;;;;;13.50;9.33;;;22.30;52.20;;;;;;5128844;27;20452;-52
2021/03/25 10:10:46;;;;;;;13.80;10.30;;;21.60;52.80;;;;;;5107582;27;20681;-49
2021/03/25 10:13:16;;;;;;;14.43;11.30;;;21.60;54.60;;;;;;5101624;28;20436;-50
2021/03/25 10:15:49;;;;;;;11.07;9.50;;;22.00;53.20;;;;;;5115518;27;21012;-50
2021/03/25 10:18:15;;;;;;;11.35;9.40;;;22.20;52.70;;;;;;5100893;27;20427;-51
2021/03/25 10:20:44;;;;;;;12.67;8.90;;;22.20;52.00;;;;;;5105572;28;20466;-51
2021/03/25 10:23:27;;;;;;;10.33;8.93;;;21.80;52.00;;;;;;5098966;28;20237;-52
2021/03/25 10:26:15;;;;;;;11.13;8.23;;;21.40;52.30;;;;;;5105736;28;20763;-52
2021/03/25 10:28:51;;;;;;;7.70;6.90;;;21.30;52.40;;;;;;5119509;27;20453;-53
2021/03/25 10:31:28;;;;;;;10.10;7.45;;;21.30;51.90;;;;;;5102101;28;20494;-52
2021/03/25 10:34:04;;;;;;;8.27;7.45;;;21.30;51.60;;;;;;5107441;28;20193;-52
2021/03/25 10:36:40;;;;;;;11.77;7.47;;;20.80;51.00;;;;;;5110376;28;20183;-53
2021/03/25 10:39:15;;;;;;;8.43;7.40;;;20.80;51.10;;;;;;5106855;28;20468;-53
2021/03/25 10:41:42;;;;;;;9.57;7.28;;;20.70;51.60;;;;;;5109090;28;20228;-52
2021/03/25 10:44:20;;;;;;;10.95;7.60;;;20.40;51.00;;;;;;5098249;28;20175;-52
2021/03/25 10:46:49;;;;;;;10.07;7.80;;;20.10;52.10;;;;;;5098515;28;20175;-52
2021/03/25 10:49:23;;;;;;;9.55;7.45;;;19.70;52.80;;;;;;5103514;28;20201;-52
2021/03/25 10:51:49;;;;;;;8.38;6.55;;;19.40;52.70;;;;;;5121627;27;20587;-52
2021/03/25 10:54:25;;;;;;;9.18;7.25;;;19.40;52.80;;;;;;5092012;28;20183;-51
2021/03/25 10:57:22;;;;;;;11.02;7.85;;;19.40;52.50;;;;;;5104254;28;20194;-54
2021/03/25 11:00:01;;;;;;;11.13;7.82;;;19.80;52.70;;;;;;5073730;28;21093;-51
2021/03/25 11:02:37;;;;;;;10.20;7.10;;;20.00;52.80;;;;;;5104589;28;20210;-51
2021/03/25 11:05:17;;;;;;;7.50;6.72;;;20.90;51.60;;;;;;5096421;28;20282;-51
2021/03/25 11:07:49;;;;;;;7.73;6.90;;;21.60;49.20;;;;;;5128366;27;20174;-51
2021/03/25 11:10:33;;;;;;;6.67;5.97;;;22.10;47.60;;;;;;5102959;27;20981;-51
2021/03/25 11:13:05;;;;;;;9.20;5.87;;;22.10;47.50;;;;;;5107409;27;20440;-52
2021/03/25 11:15:34;;;;;;;8.90;6.87;;;22.40;47.40;;;;;;5107546;27;20451;-51
2021/03/25 11:18:21;;;;;;;13.93;6.67;;;21.90;45.90;;;;;;5102746;27;20820;-53
2021/03/25 11:20:49;;;;;;;7.93;5.30;;;22.10;46.50;;;;;;5090582;28;20954;-52
2021/03/25 11:23:18;;;;;;;7.40;6.00;;;21.80;47.20;;;;;;5104571;28;20463;-52
2021/03/25 11:25:45;;;;;;;6.65;5.13;;;21.50;46.50;;;;;;5126031;27;20595;-51
2021/03/25 11:28:16;;;;;;;7.10;4.07;;;21.30;45.10;;;;;;5109903;27;20670;-52
2021/03/25 11:30:46;;;;;;;6.93;4.75;;;21.30;44.10;;;;;;5109904;27;20586;-55
2021/03/25 11:33:31;;;;;;;6.40;5.63;;;21.40;45.20;;;;;;5096691;28;20419;-51
2021/03/25 11:35:59;;;;;;;8.07;5.13;;;20.80;47.10;;;;;;5102603;27;20211;-51
2021/03/25 11:38:25;;;;;;;7.00;6.10;;;21.10;46.70;;;;;;5100555;28;20205;-51
2021/03/25 11:40:53;;;;;;;10.83;6.50;;;21.00;47.40;;;;;;5105351;27;20436;-54
2021/03/25 11:43:37;;;;;;;6.80;5.50;;;20.90;47.00;;;;;;5098089;27;20246;-54
2021/03/25 11:46:02;;;;;;;8.30;5.40;;;20.90;46.70;;;;;;5105935;27;20446;-51
2021/03/25 11:48:32;;;;;;;6.00;5.27;;;21.00;47.70;;;;;;5102883;27;20198;-51
2021/03/25 11:51:17;;;;;;;6.05;4.90;;;21.20;46.30;;;;;;5102726;27;20174;-52
2021/03/25 11:53:52;;;;;;;7.70;5.18;;;21.30;46.40;;;;;;5100418;28;20267;-52
2021/03/25 11:56:29;;;;;;;5.53;4.88;;;21.00;46.60;;;;;;5103077;27;20182;-51
2021/03/25 11:59:27;;;;;;;7.43;5.60;;;21.20;46.40;;;;;;5098029;28;20207;-52
2021/03/25 12:02:25;;;;;;;7.15;6.10;;;21.40;47.10;;;;;;5117257;27;20465;-52
2021/03/25 12:04:52;;;;;;;9.05;5.97;;;21.30;46.80;;;;;;5104629;27;20293;-51
2021/03/25 12:07:24;;;;;;;11.05;7.57;;;21.10;48.30;;;;;;5096655;27;20264;-54
2021/03/25 12:10:00;;;;;;;8.00;6.82;;;21.10;48.00;;;;;;5112359;27;20552;-52
2021/03/25 12:12:26;;;;;;;7.03;5.78;;;21.00;48.60;;;;;;5101331;27;20194;-52
2021/03/25 12:14:52;;;;;;;10.50;5.53;;;20.90;48.10;;;;;;5104177;27;20192;-50
2021/03/25 12:17:18;;;;;;;9.80;6.50;;;21.00;48.10;;;;;;5098752;27;20270;-51
2021/03/25 12:19:44;;;;;;;8.30;5.80;;;20.70;48.60;;;;;;5105995;27;20991;-50
2021/03/25 12:22:17;;;;;;;10.37;6.77;;;20.30;49.80;;;;;;5109516;27;20203;-52
2021/03/25 12:24:43;;;;;;;7.88;6.80;;;20.20;49.80;;;;;;5097230;28;20855;-51
2021/03/25 12:27:16;;;;;;;7.77;6.43;;;19.90;50.30;;;;;;5104228;27;20259;-51
2021/03/25 12:29:41;;;;;;;6.78;5.35;;;19.70;50.50;;;;;;5117510;27;20660;-51
2021/03/25 12:32:12;;;;;;;8.40;6.10;;;19.60;51.10;;;;;;5100334;27;20285;-52
2021/03/25 12:34:38;;;;;;;10.77;7.05;;;19.70;51.80;;;;;;5119415;27;20530;-51
2021/03/25 12:37:03;;;;;;;7.70;6.50;;;19.60;51.70;;;;;;5098954;27;20388;-51
2021/03/25 12:39:29;;;;;;;10.90;7.50;;;19.80;51.60;;;;;;5096469;27;20203;-51
2021/03/25 12:41:57;;;;;;;10.50;7.30;;;19.50;51.70;;;;;;5102195;28;20431;-50
2021/03/25 12:44:23;;;;;;;8.10;6.90;;;19.50;52.50;;;;;;5104707;27;20452;-52
2021/03/25 12:46:48;;;;;;;10.60;7.40;;;19.70;52.40;;;;;;5108654;27;20640;-53
2021/03/25 12:49:14;;;;;;;9.03;7.50;;;19.70;52.70;;;;;;5102812;27;20519;-53
2021/03/25 12:51:39;;;;;;;11.17;8.00;;;19.40;53.30;;;;;;5100570;27;20189;-53
2021/03/25 12:54:05;;;;;;;9.47;7.70;;;19.60;53.60;;;;;;5098645;28;20270;-51
2021/03/25 12:56:34;;;;;;;9.97;7.10;;;19.50;53.50;;;;;;5097855;27;20183;-51
2021/03/25 12:59:02;;;;;;;7.57;6.65;;;19.20;53.80;;;;;;5104750;27;20726;-53
2021/03/25 13:01:29;;;;;;;9.40;7.20;;;19.00;54.30;;;;;;5104706;28;20593;-50
2021/03/25 13:03:55;;;;;;;11.38;7.75;;;19.00;54.20;;;;;;5101602;27;20309;-54
2021/03/25 13:06:23;;;;;;;10.85;7.50;;;19.00;54.50;;;;;;5108351;27;20183;-54
2021/03/25 13:08:49;;;;;;;12.13;7.72;;;18.90;55.30;;;;;;5105895;27;20206;-52
2021/03/25 13:11:18;;;;;;;10.60;7.70;;;18.70;55.00;;;;;;5112852;27;20187;-51
2021/03/25 13:13:45;;;;;;;10.45;7.15;;;18.70;55.50;;;;;;5098370;27;20433;-50
2021/03/25 13:16:11;;;;;;;9.32;6.82;;;18.60;56.00;;;;;;5108649;27;20282;-53
2021/03/25 13:18:37;;;;;;;7.47;6.70;;;18.60;55.90;;;;;;5105398;28;20279;-51
2021/03/25 13:21:04;;;;;;;9.02;6.97;;;18.80;56.10;;;;;;5101298;27;20904;-52
2021/03/25 13:23:30;;;;;;;7.97;6.47;;;19.10;55.50;;;;;;5105656;28;20220;-51